createdAt,value
2024-01-25T00:02:14.265Z,102636.69
2024-01-25T00:07:16.544Z,102650.69
2024-01-25T00:12:18.618Z,102649.03
2024-01-25T00:17:20.528Z,102647.72
2024-01-25T00:22:23.008Z,102656.22
2024-01-25T00:27:25.102Z,102654.84
2024-01-25T00:32:27.238Z,102664.22
2024-01-25T00:37:29.645Z,102658.59
2024-01-25T00:42:33.048Z,102673.69
2024-01-25T00:47:35.720Z,102675.50
2024-01-25T00:52:38.160Z,102670.22
2024-01-25T00:57:40.631Z,102676.50
2024-01-25T01:02:46.579Z,102687.69
2024-01-25T01:07:49.028Z,102687.88
2024-01-25T01:12:51.264Z,102690.31
2024-01-25T01:17:53.291Z,102697.63
2024-01-25T01:22:55.316Z,102697.13
2024-01-25T01:27:57.382Z,102700.63
2024-01-25T01:32:59.617Z,102700.25
2024-01-25T01:38:01.710Z,102702.25
2024-01-25T01:43:03.993Z,102712.50
2024-01-25T01:48:07.901Z,102725.75
2024-01-25T01:53:10.480Z,102723.63
2024-01-25T01:58:12.642Z,102731.19
2024-01-25T02:03:14.604Z,102742.31
2024-01-25T02:08:16.752Z,102755.50
2024-01-25T02:13:18.991Z,102762.66
2024-01-25T02:18:21.184Z,102769.97
2024-01-25T02:23:23.250Z,102759.75
2024-01-25T02:28:25.409Z,102774.97
2024-01-25T02:33:27.461Z,102769.56
2024-01-25T02:38:29.558Z,102772.75
2024-01-25T02:43:31.557Z,102772.59
2024-01-25T02:48:33.829Z,102777.38
2024-01-25T02:53:36.001Z,102775.97
2024-01-25T02:58:38.002Z,102770.56
2024-01-25T03:03:40.364Z,102778.22
2024-01-25T03:08:42.360Z,102773.28
2024-01-25T03:13:44.305Z,102779.41
2024-01-25T03:18:46.425Z,102784.50
2024-01-25T03:23:48.404Z,102779.38
2024-01-25T03:28:50.348Z,102777.66
2024-01-25T03:33:52.505Z,102768.09
2024-01-25T03:38:54.609Z,102767.22
2024-01-25T03:43:56.714Z,102776.31
2024-01-25T03:48:58.854Z,102773.53
2024-01-25T03:54:00.855Z,102772.88
2024-01-25T03:59:02.853Z,102777.06
2024-01-25T04:04:05.059Z,102778.09
2024-01-25T04:09:07.134Z,102780.59
2024-01-25T04:14:09.023Z,102770.00
2024-01-25T04:19:13.847Z,102769.19
2024-01-25T04:24:15.976Z,102779.03
2024-01-25T04:29:18.009Z,102778.94
2024-01-25T04:34:20.250Z,102779.25
2024-01-25T04:39:23.321Z,102783.78
2024-01-25T04:44:25.269Z,102785.69
2024-01-25T04:49:27.257Z,102783.34
2024-01-25T04:54:29.466Z,102789.56
2024-01-25T04:59:31.483Z,102802.88
2024-01-25T05:04:34.331Z,102799.56
2024-01-25T05:09:36.329Z,102799.38
2024-01-25T05:14:38.301Z,102796.22
2024-01-25T05:19:40.347Z,102790.03
2024-01-25T05:24:42.603Z,102789.38
2024-01-25T05:29:44.548Z,102786.72
2024-01-25T05:34:46.823Z,102803.91
2024-01-25T05:39:49.230Z,102812.56
2024-01-25T05:44:52.048Z,102816.31
2024-01-25T05:49:54.746Z,102813.22
2024-01-25T05:54:56.876Z,102813.03
2024-01-25T05:59:58.898Z,102833.25
2024-01-25T06:05:01.369Z,102829.50
2024-01-25T06:10:04.866Z,102825.56
2024-01-25T06:15:08.374Z,102831.22
2024-01-25T06:20:12.296Z,102832.03
2024-01-25T06:25:17.055Z,102839.59
2024-01-25T06:30:24.151Z,102839.84
2024-01-25T06:35:33.970Z,102840.75
2024-01-25T06:46:08.391Z,102849.88
2024-01-25T06:51:15.581Z,102848.72
2024-01-25T06:56:25.491Z,102847.22
2024-01-25T07:01:33.288Z,102847.94
2024-01-25T07:06:36.307Z,102846.50
2024-01-25T07:11:41.211Z,102840.75
2024-01-25T07:22:04.826Z,102832.22
2024-01-25T07:27:08.511Z,102827.22
2024-01-25T07:32:13.873Z,102836.16
2024-01-25T07:37:22.955Z,102841.75
2024-01-25T07:42:29.781Z,102865.25
2024-01-25T07:53:47.497Z,102858.47
2024-01-25T07:58:53.725Z,102847.88
2024-01-25T08:03:57.145Z,102852.19
2024-01-25T08:08:59.256Z,102853.81
2024-01-25T08:14:01.736Z,102856.44
2024-01-25T08:19:04.399Z,102854.72
2024-01-25T08:24:06.660Z,102862.34
2024-01-25T08:29:08.639Z,102867.47
2024-01-25T08:34:10.742Z,102875.81
2024-01-25T08:39:12.943Z,102881.81
2024-01-25T08:44:14.955Z,102863.59
2024-01-25T08:49:17.154Z,102879.84
2024-01-25T08:54:19.708Z,102900.56
2024-01-25T08:59:22.244Z,102888.09
2024-01-25T09:04:26.229Z,102883.50
2024-01-25T09:09:28.529Z,102898.91
2024-01-25T09:14:32.694Z,102887.50
2024-01-25T09:25:47.074Z,102899.53
2024-01-25T09:30:49.261Z,102904.84
2024-01-25T09:35:51.581Z,102913.19
2024-01-25T09:40:54.290Z,102900.78
2024-01-25T09:45:56.477Z,102897.88
2024-01-25T09:51:00.725Z,102873.28
2024-01-25T09:56:12.990Z,102884.59
2024-01-25T10:01:16.778Z,102898.28
2024-01-25T10:06:19.983Z,102895.28
2024-01-25T10:11:22.005Z,102882.81
2024-01-25T10:16:24.023Z,102858.16
2024-01-25T10:21:26.901Z,102852.69
2024-01-25T10:26:32.007Z,102861.19
2024-01-25T10:31:40.138Z,102867.00
2024-01-25T10:36:42.626Z,102846.63
2024-01-25T10:41:46.565Z,102850.44
2024-01-25T10:46:49.719Z,102853.63
2024-01-25T10:51:52.932Z,102836.97
2024-01-25T10:56:55.441Z,102838.38
2024-01-25T11:01:57.490Z,102833.88
2024-01-25T11:07:10.313Z,102836.06
2024-01-25T11:12:15.660Z,102825.34
2024-01-25T11:17:23.365Z,102812.88
2024-01-25T11:22:44.662Z,102796.69
2024-01-25T11:27:46.820Z,102782.63
2024-01-25T11:32:52.305Z,102775.03
2024-01-25T11:37:54.629Z,102798.16
2024-01-25T11:42:56.720Z,102788.22
2024-01-25T11:47:58.855Z,102768.25
2024-01-25T11:53:00.853Z,102771.72
2024-01-25T11:58:03.310Z,102765.88
2024-01-25T12:03:05.920Z,102776.22
2024-01-25T12:08:15.162Z,102750.88
2024-01-25T12:13:18.304Z,102725.66
2024-01-25T12:18:20.718Z,102736.47
2024-01-25T12:23:42.732Z,102740.59
2024-01-25T12:28:51.323Z,102735.69
2024-01-25T12:33:54.068Z,102719.69
2024-01-25T12:38:57.883Z,102702.78
2024-01-25T12:44:05.775Z,102701.59
2024-01-25T12:49:09.631Z,102699.88
2024-01-25T12:54:18.615Z,102705.13
2024-01-25T12:59:21.417Z,102699.56
2024-01-25T13:04:25.725Z,102699.28
2024-01-25T13:09:30.891Z,102682.72
2024-01-25T13:14:40.299Z,102672.69
2024-01-25T13:19:42.738Z,102674.56
2024-01-25T13:24:48.253Z,102670.44
2024-01-25T13:30:06.482Z,102659.84
2024-01-25T13:35:11.295Z,102652.03
2024-01-25T13:40:22.208Z,102647.56
2024-01-25T13:45:30.181Z,102631.97
2024-01-25T13:50:37.573Z,102633.75
2024-01-25T13:55:47.156Z,102635.47
2024-01-25T14:00:51.586Z,102623.19
2024-01-25T14:05:57.943Z,102604.00
2024-01-25T14:11:03.544Z,102607.34
2024-01-25T14:21:31.742Z,102605.03
2024-01-25T14:26:37.543Z,102598.88
2024-01-25T14:31:40.856Z,102589.50
2024-01-25T14:36:46.040Z,102578.22
2024-01-25T14:41:48.694Z,102587.75
2024-01-25T14:46:51.635Z,102581.53
2024-01-25T14:51:57.316Z,102578.97
2024-01-25T14:57:04.822Z,102576.34
2024-01-25T15:02:33.340Z,102575.59
2024-01-25T15:07:37.771Z,102567.88
2024-01-25T15:12:43.976Z,102564.50
2024-01-25T15:17:52.565Z,102570.91
2024-01-25T15:23:02.268Z,102565.97
2024-01-25T15:28:04.789Z,102549.53
2024-01-25T15:33:10.104Z,102542.69
2024-01-25T15:38:19.085Z,102528.91
2024-01-25T15:43:23.081Z,102503.75
2024-01-25T15:48:25.436Z,102517.81
2024-01-25T15:53:27.758Z,102521.50
2024-01-25T15:58:30.683Z,102508.44
2024-01-25T16:03:32.753Z,102515.44
2024-01-25T16:08:37.485Z,102500.81
2024-01-25T16:13:42.555Z,102495.56
2024-01-25T16:18:45.842Z,102496.34
2024-01-25T16:23:48.261Z,102505.16
2024-01-25T16:28:50.158Z,102499.94
2024-01-25T16:33:52.177Z,102505.97
2024-01-25T16:38:54.251Z,102494.53
2024-01-25T16:43:56.179Z,102484.97
2024-01-25T16:48:59.130Z,102483.19
2024-01-25T16:54:01.242Z,102476.13
2024-01-25T16:59:03.405Z,102476.91
2024-01-25T17:04:06.944Z,102485.44
2024-01-25T17:09:10.256Z,102478.34
2024-01-25T17:14:13.327Z,102468.56
2024-01-25T17:19:15.343Z,102472.66
2024-01-25T17:24:17.345Z,102456.91
2024-01-25T17:29:19.519Z,102463.69
2024-01-25T17:34:23.798Z,102456.50
2024-01-25T17:39:25.863Z,102466.00
2024-01-25T17:44:27.778Z,102459.00
2024-01-25T17:49:35.367Z,102444.91
2024-01-25T17:54:37.493Z,102454.31
2024-01-25T18:19:41.053Z,102428.28
2024-01-25T18:24:43.044Z,102417.78
2024-01-25T18:29:45.096Z,102424.47
2024-01-25T18:34:47.157Z,102420.84
2024-01-25T18:39:49.212Z,102420.56
2024-01-25T18:44:51.303Z,102410.91
2024-01-25T18:49:53.410Z,102412.53
2024-01-25T18:54:55.804Z,102415.59
2024-01-25T18:59:58.021Z,102404.03
2024-01-25T19:05:01.930Z,102387.59
2024-01-25T19:10:04.087Z,102384.81
2024-01-25T19:15:09.747Z,102385.88
2024-01-25T19:20:13.248Z,102387.44
2024-01-25T19:25:15.339Z,102373.56
2024-01-25T19:30:17.598Z,102358.63
2024-01-25T19:35:21.593Z,102364.94
2024-01-25T19:40:23.636Z,102355.34
2024-01-25T19:45:25.709Z,102348.91
2024-01-25T19:50:27.654Z,102346.88
2024-01-25T19:55:36.358Z,102349.63
2024-01-25T20:00:38.677Z,102346.75
2024-01-25T20:05:42.065Z,102333.44
2024-01-25T20:10:49.774Z,102332.16
2024-01-25T20:15:55.005Z,102333.94
2024-01-25T20:21:01.359Z,102326.16
2024-01-25T20:26:04.153Z,102319.66
2024-01-25T20:31:09.232Z,102316.34
2024-01-25T20:36:14.472Z,102324.72
2024-01-25T20:41:16.710Z,102317.13
2024-01-25T20:46:19.782Z,102317.47
2024-01-25T20:51:26.261Z,102301.06
2024-01-25T20:56:31.742Z,102309.66
2024-01-25T21:01:35.327Z,102294.31
2024-01-25T21:06:38.151Z,102291.25
2024-01-25T21:11:42.187Z,102290.97
2024-01-25T21:16:46.000Z,102284.28
2024-01-25T21:21:48.469Z,102290.31
2024-01-25T21:26:52.594Z,102283.78
2024-01-25T21:32:00.559Z,102274.00
2024-01-25T21:37:04.166Z,102272.97
2024-01-25T21:42:08.856Z,102263.59
2024-01-25T21:47:16.654Z,102260.06
2024-01-25T21:52:21.291Z,102267.66
2024-01-25T21:57:27.571Z,102263.88
2024-01-25T22:02:30.328Z,102260.25
2024-01-25T22:07:32.976Z,102260.59
2024-01-25T22:12:38.668Z,102258.84
2024-01-25T22:17:42.160Z,102256.91
2024-01-25T22:22:47.160Z,102254.72
2024-01-25T22:27:49.951Z,102250.53
2024-01-25T22:32:52.601Z,102252.38
2024-01-25T22:37:54.876Z,102255.63
2024-01-25T22:42:58.398Z,102263.03
2024-01-25T22:48:03.030Z,102262.91
2024-01-25T22:53:10.567Z,102257.69
2024-01-25T22:58:15.570Z,102249.00
2024-01-25T23:03:17.898Z,102225.22
2024-01-25T23:08:23.114Z,102232.63
2024-01-25T23:13:26.394Z,102231.09
2024-01-25T23:18:35.530Z,102228.44
2024-01-25T23:23:38.497Z,102236.22
2024-01-25T23:28:44.768Z,102235.34
2024-01-25T23:33:50.913Z,102237.06
2024-01-25T23:38:53.509Z,102242.94
2024-01-25T23:43:59.181Z,102240.53
2024-01-25T23:49:01.972Z,102238.53
2024-01-25T23:54:09.546Z,102232.38
2024-01-25T23:59:13.720Z,102228.97
